ESGG Airport Information

Runway Information
Runway 03 Length 10823 ft width 148 ft
Elevation 478 ft Threshold 0 ft Heading 26
Runway 21 Length 10823 ft Width 148 ft
Elevation 506 ft Threshold 0 ft Heading 206
Airport Frequencies
Type ATIS Name ATIS Frequency 118.375 MHZ
Type GCCD Name GND Frequency 121.9 MHZ
Type TCA Name GOTEBORG A Frequency 124.675 MHZ
Type TWR Name TWR Frequency 118.6 MHZ
Airport Navaids
Type VOR-DME Name Landvetter Frequency 114600 KHZ
Airport Weather Information & NOTAM
ADDS - METARS form results

(0237 UTC 17 April 2021)
Data provider http://aviationweather.gov/metar/data/
 
METAR text: ESGG 170220Z 03009KT CAVOK 06/M02 Q1028 R03/09//95
Conditions at: ESGG (GOTEBORG/LANDVET, SE) observed 0220 UTC 17 April 2021
Temperature: 6.0°C (43°F)
Dewpoint: -2.0°C (28°F) [RH = 56%]
Pressure (altimeter): 30.35 inches Hg (1028.0 mb)
Winds: from the NNE (30 degrees) at 10 MPH (9 knots; 4.6 m/s)
Visibility: 6 or more miles (10+ km)
Ceiling: ceiling and visibility are OK
Clouds: unknown
Weather: no significant weather observed at this time

METAR text: ESGG 170150Z 04010KT CAVOK 06/M02 Q1028 R03/09//95
Conditions at: ESGG (GOTEBORG/LANDVET, SE) observed 0150 UTC 17 April 2021
Temperature: 6.0°C (43°F)
Dewpoint: -2.0°C (28°F) [RH = 56%]
Pressure (altimeter): 30.35 inches Hg (1028.0 mb)
Winds: from the NE (40 degrees) at 12 MPH (10 knots; 5.1 m/s)
Visibility: 6 or more miles (10+ km)
Ceiling: ceiling and visibility are OK
Clouds: unknown
Weather: no significant weather observed at this time

Forecast for: ESGG (GOTEBORG/LANDVET, SE)
Text: TAF ESGG 162330Z 1700/1724 03007KT CAVOK
Forecast period: 0000 UTC 17 April 2021 to 0000 UTC 18 April 2021
Forecast type: FROM: standard forecast or significant change
Winds: from the NNE (30 degrees) at 8 MPH (7 knots; 3.6 m/s)
Visibility: 6 or more miles (10+ km)
Ceiling: unknown
Clouds: missing
Weather: NSW  (no significant weather)